Nunam Iqua, Alaska
Current Conditions -  °F | °C
As of 2:16 PM on Tuesday 27 Jan 2015 (Local Time) from PAEM Reporting Station
Clear Clear  
Wind Chill: -19°   Ceiling: Unl
Heat Index:   Visibility: 10mi
Dew Point: -6°   Wind: 14mph
Humidity: 78%   Direction: 30°NNE
Pressure: 30.06"   Gusts: NA
Location:  62.5092°N, 164.453°W
Report Text: PAEM 272316Z AUTO 03012KT 10SM CLR M18/M21 A3006 RMK AO1
Loading
Personal Weather Stations






























Interactive Weather Map New forecast layout! Learn more

10-Day Weather Forecast

Advertisements
Track Severe Weather on mobile